sensor_id;sensor_type;location;lat;lon;timestamp;temperature;humidity
17200;DHT22;8716;52.268;20.968;2024-01-15T00:01:35;2.60;99.90
17200;DHT22;8716;52.268;20.968;2024-01-15T00:04:04;2.60;99.90
17200;DHT22;8716;52.268;20.968;2024-01-15T00:06:32;2.60;99.90
17200;DHT22;8716;52.268;20.968;2024-01-15T00:09:00;2.60;99.90
17200;DHT22;8716;52.268;20.968;2024-01-15T00:11:31;2.60;99.90
17200;DHT22;8716;52.268;20.968;2024-01-15T00:14:00;2.60;99.90
17200;DHT22;8716;52.268;20.968;2024-01-15T00:16:29;2.70;99.90
17200;DHT22;8716;52.268;20.968;2024-01-15T00:18:58;2.70;99.90
17200;DHT22;8716;52.268;20.968;2024-01-15T00:21:26;2.70;99.90
17200;DHT22;8716;52.268;20.968;2024-01-15T00:23:55;2.70;99.90
17200;DHT22;8716;52.268;20.968;2024-01-15T00:26:23;2.70;99.90
17200;DHT22;8716;52.268;20.968;2024-01-15T00:28:51;2.60;99.90
17200;DHT22;8716;52.268;20.968;2024-01-15T00:31:19;2.70;99.90
17200;DHT22;8716;52.268;20.968;2024-01-15T00:33:49;2.70;99.90
17200;DHT22;8716;52.268;20.968;2024-01-15T00:36:17;2.70;99.90
17200;DHT22;8716;52.268;20.968;2024-01-15T00:38:46;2.70;99.90
17200;DHT22;8716;52.268;20.968;2024-01-15T00:41:15;2.70;99.90
17200;DHT22;8716;52.268;20.968;2024-01-15T00:43:43;2.70;99.90
17200;DHT22;8716;52.268;20.968;2024-01-15T00:46:12;2.70;99.90
17200;DHT22;8716;52.268;20.968;2024-01-15T00:48:40;2.70;99.90
17200;DHT22;8716;52.268;20.968;2024-01-15T00:51:10;2.70;99.90
17200;DHT22;8716;52.268;20.968;2024-01-15T00:53:39;2.70;99.90
17200;DHT22;8716;52.268;20.968;2024-01-15T00:56:07;2.70;99.90
17200;DHT22;8716;52.268;20.968;2024-01-15T00:58:35;2.70;99.90
17200;DHT22;8716;52.268;20.968;2024-01-15T01:01:03;2.70;99.90
17200;DHT22;8716;52.268;20.968;2024-01-15T01:03:32;2.70;99.90
17200;DHT22;8716;52.268;20.968;2024-01-15T01:06:00;2.70;99.90
17200;DHT22;8716;52.268;20.968;2024-01-15T01:08:30;2.70;99.90
17200;DHT22;8716;52.268;20.968;2024-01-15T01:10:58;2.70;99.90
17200;DHT22;8716;52.268;20.968;2024-01-15T01:13:27;2.70;99.90
17200;DHT22;8716;52.268;20.968;2024-01-15T01:15:55;2.60;99.90
17200;DHT22;8716;52.268;20.968;2024-01-15T01:18:24;2.60;99.90
17200;DHT22;8716;52.268;20.968;2024-01-15T01:20:52;2.60;99.90
17200;DHT22;8716;52.268;20.968;2024-01-15T01:23:20;2.60;99.90
17200;DHT22;8716;52.268;20.968;2024-01-15T01:25:50;2.60;99.90
17200;DHT22;8716;52.268;20.968;2024-01-15T01:28:18;2.60;99.90
17200;DHT22;8716;52.268;20.968;2024-01-15T01:30:46;2.50;99.90
17200;DHT22;8716;52.268;20.968;2024-01-15T01:33:18;2.50;99.90
17200;DHT22;8716;52.268;20.968;2024-01-15T01:35:47;2.50;99.90
17200;DHT22;8716;52.268;20.968;2024-01-15T01:38:15;2.40;99.90
17200;DHT22;8716;52.268;20.968;2024-01-15T01:40:43;2.40;99.90
17200;DHT22;8716;52.268;20.968;2024-01-15T01:43:13;2.40;99.90
17200;DHT22;8716;52.268;20.968;2024-01-15T01:45:41;2.40;99.90
17200;DHT22;8716;52.268;20.968;2024-01-15T01:48:09;2.40;99.90
17200;DHT22;8716;52.268;20.968;2024-01-15T01:50:38;2.40;99.90
17200;DHT22;8716;52.268;20.968;2024-01-15T01:53:06;2.40;99.90
17200;DHT22;8716;52.268;20.968;2024-01-15T01:55:38;2.40;99.90
17200;DHT22;8716;52.268;20.968;2024-01-15T01:58:06;2.40;99.90
17200;DHT22;8716;52.268;20.968;2024-01-15T02:00:36;2.40;99.90
17200;DHT22;8716;52.268;20.968;2024-01-15T02:03:05;2.40;99.90
17200;DHT22;8716;52.268;20.968;2024-01-15T02:05:35;2.40;99.90
17200;DHT22;8716;52.268;20.968;2024-01-15T02:08:04;2.40;99.90
17200;DHT22;8716;52.268;20.968;2024-01-15T02:10:33;2.40;99.90
17200;DHT22;8716;52.268;20.968;2024-01-15T02:13:01;2.50;99.90
17200;DHT22;8716;52.268;20.968;2024-01-15T02:15:29;2.50;99.90
17200;DHT22;8716;52.268;20.968;2024-01-15T02:18:00;2.50;99.90
17200;DHT22;8716;52.268;20.968;2024-01-15T02:20:29;2.50;99.90
17200;DHT22;8716;52.268;20.968;2024-01-15T02:23:05;2.60;99.90
17200;DHT22;8716;52.268;20.968;2024-01-15T02:25:36;2.50;99.90
17200;DHT22;8716;52.268;20.968;2024-01-15T02:28:05;2.60;99.90
17200;DHT22;8716;52.268;20.968;2024-01-15T02:30:35;2.60;99.90
17200;DHT22;8716;52.268;20.968;2024-01-15T02:33:05;2.60;99.90
17200;DHT22;8716;52.268;20.968;2024-01-15T02:35:33;2.60;99.90
17200;DHT22;8716;52.268;20.968;2024-01-15T02:38:05;2.60;99.90
17200;DHT22;8716;52.268;20.968;2024-01-15T02:40:34;2.60;99.90
17200;DHT22;8716;52.268;20.968;2024-01-15T02:43:03;2.60;99.90
17200;DHT22;8716;52.268;20.968;2024-01-15T02:45:31;2.60;99.90
17200;DHT22;8716;52.268;20.968;2024-01-15T02:47:59;2.60;99.90
17200;DHT22;8716;52.268;20.968;2024-01-15T02:50:28;2.70;99.90
17200;DHT22;8716;52.268;20.968;2024-01-15T02:52:56;2.60;99.90
17200;DHT22;8716;52.268;20.968;2024-01-15T02:55:25;2.60;99.90
17200;DHT22;8716;52.268;20.968;2024-01-15T02:57:56;2.60;99.90
17200;DHT22;8716;52.268;20.968;2024-01-15T03:00:24;2.60;99.90
17200;DHT22;8716;52.268;20.968;2024-01-15T03:02:53;2.50;99.90
17200;DHT22;8716;52.268;20.968;2024-01-15T03:05:21;2.50;99.90
17200;DHT22;8716;52.268;20.968;2024-01-15T03:07:49;2.50;99.90
17200;DHT22;8716;52.268;20.968;2024-01-15T03:10:17;2.50;99.90
17200;DHT22;8716;52.268;20.968;2024-01-15T03:12:47;2.60;99.90
17200;DHT22;8716;52.268;20.968;2024-01-15T03:15:15;2.50;99.90
17200;DHT22;8716;52.268;20.968;2024-01-15T03:17:45;2.50;99.90
17200;DHT22;8716;52.268;20.968;2024-01-15T03:20:14;2.40;99.90
17200;DHT22;8716;52.268;20.968;2024-01-15T03:22:42;2.40;99.90
17200;DHT22;8716;52.268;20.968;2024-01-15T03:25:10;2.40;99.90
17200;DHT22;8716;52.268;20.968;2024-01-15T03:27:38;2.40;99.90
17200;DHT22;8716;52.268;20.968;2024-01-15T03:30:09;2.30;99.90
17200;DHT22;8716;52.268;20.968;2024-01-15T03:32:37;2.30;99.90
17200;DHT22;8716;52.268;20.968;2024-01-15T03:35:06;2.30;99.90
17200;DHT22;8716;52.268;20.968;2024-01-15T03:37:35;2.30;99.90
17200;DHT22;8716;52.268;20.968;2024-01-15T03:40:04;2.30;99.90
17200;DHT22;8716;52.268;20.968;2024-01-15T03:42:33;2.30;99.90
17200;DHT22;8716;52.268;20.968;2024-01-15T03:45:01;2.30;99.90
17200;DHT22;8716;52.268;20.968;2024-01-15T03:47:31;2.30;99.90
17200;DHT22;8716;52.268;20.968;2024-01-15T03:50:02;2.30;99.90
17200;DHT22;8716;52.268;20.968;2024-01-15T03:52:30;2.20;99.90
17200;DHT22;8716;52.268;20.968;2024-01-15T03:54:59;2.20;99.90
17200;DHT22;8716;52.268;20.968;2024-01-15T03:57:27;2.30;99.90
17200;DHT22;8716;52.268;20.968;2024-01-15T03:59:55;2.30;99.90
17200;DHT22;8716;52.268;20.968;2024-01-15T04:02:23;2.30;99.90
17200;DHT22;8716;52.268;20.968;2024-01-15T04:04:53;2.30;99.90
17200;DHT22;8716;52.268;20.968;2024-01-15T04:07:24;2.30;99.90
17200;DHT22;8716;52.268;20.968;2024-01-15T04:09:52;2.30;99.90
17200;DHT22;8716;52.268;20.968;2024-01-15T04:12:20;2.30;99.90
17200;DHT22;8716;52.268;20.968;2024-01-15T04:14:48;2.30;99.90
17200;DHT22;8716;52.268;20.968;2024-01-15T04:17:17;2.30;99.90
17200;DHT22;8716;52.268;20.968;2024-01-15T04:19:45;2.30;99.90
17200;DHT22;8716;52.268;20.968;2024-01-15T04:22:16;2.30;99.90
17200;DHT22;8716;52.268;20.968;2024-01-15T04:24:45;2.30;99.90
17200;DHT22;8716;52.268;20.968;2024-01-15T04:27:13;2.30;99.90
17200;DHT22;8716;52.268;20.968;2024-01-15T04:29:42;2.30;99.90
17200;DHT22;8716;52.268;20.968;2024-01-15T04:32:11;2.40;99.90
17200;DHT22;8716;52.268;20.968;2024-01-15T04:34:39;2.40;99.90
17200;DHT22;8716;52.268;20.968;2024-01-15T04:37:08;2.40;99.90
17200;DHT22;8716;52.268;20.968;2024-01-15T04:39:37;2.40;99.90
17200;DHT22;8716;52.268;20.968;2024-01-15T04:42:05;2.40;99.90
17200;DHT22;8716;52.268;20.968;2024-01-15T04:44:34;2.40;99.90
17200;DHT22;8716;52.268;20.968;2024-01-15T04:47:02;2.50;99.90
17200;DHT22;8716;52.268;20.968;2024-01-15T04:49:31;2.40;99.90
17200;DHT22;8716;52.268;20.968;2024-01-15T04:52:01;2.50;99.90
17200;DHT22;8716;52.268;20.968;2024-01-15T04:54:30;2.50;99.90
17200;DHT22;8716;52.268;20.968;2024-01-15T04:56:59;2.50;99.90
17200;DHT22;8716;52.268;20.968;2024-01-15T04:59:28;2.50;99.90
17200;DHT22;8716;52.268;20.968;2024-01-15T05:01:56;2.50;99.90
17200;DHT22;8716;52.268;20.968;2024-01-15T05:04:25;2.50;99.90
17200;DHT22;8716;52.268;20.968;2024-01-15T05:06:53;2.50;99.90
17200;DHT22;8716;52.268;20.968;2024-01-15T05:09:21;2.50;99.90
17200;DHT22;8716;52.268;20.968;2024-01-15T05:11:50;2.50;99.90
17200;DHT22;8716;52.268;20.968;2024-01-15T05:14:19;2.50;99.90
17200;DHT22;8716;52.268;20.968;2024-01-15T05:16:50;2.50;99.90
17200;DHT22;8716;52.268;20.968;2024-01-15T05:19:18;2.50;99.90
17200;DHT22;8716;52.268;20.968;2024-01-15T05:21:47;2.50;99.90
17200;DHT22;8716;52.268;20.968;2024-01-15T05:24:15;2.50;99.90
17200;DHT22;8716;52.268;20.968;2024-01-15T05:26:43;2.60;99.90
17200;DHT22;8716;52.268;20.968;2024-01-15T05:29:12;2.60;99.90
17200;DHT22;8716;52.268;20.968;2024-01-15T05:31:41;2.60;99.90
17200;DHT22;8716;52.268;20.968;2024-01-15T05:34:09;2.60;99.90
17200;DHT22;8716;52.268;20.968;2024-01-15T05:36:38;2.60;99.90
17200;DHT22;8716;52.268;20.968;2024-01-15T05:39:06;2.60;99.90
17200;DHT22;8716;52.268;20.968;2024-01-15T05:41:34;2.50;99.90
17200;DHT22;8716;52.268;20.968;2024-01-15T05:44:03;2.50;99.90
17200;DHT22;8716;52.268;20.968;2024-01-15T05:46:31;2.60;99.90
17200;DHT22;8716;52.268;20.968;2024-01-15T05:49:01;2.60;99.90
17200;DHT22;8716;52.268;20.968;2024-01-15T05:51:29;2.60;99.90
17200;DHT22;8716;52.268;20.968;2024-01-15T05:53:57;2.60;99.90
17200;DHT22;8716;52.268;20.968;2024-01-15T05:56:26;2.60;99.90
17200;DHT22;8716;52.268;20.968;2024-01-15T05:58:54;2.60;99.90
17200;DHT22;8716;52.268;20.968;2024-01-15T06:01:22;2.60;99.90
17200;DHT22;8716;52.268;20.968;2024-01-15T06:03:50;2.50;99.90
17200;DHT22;8716;52.268;20.968;2024-01-15T06:06:20;2.50;99.90
17200;DHT22;8716;52.268;20.968;2024-01-15T06:08:48;2.50;99.90
17200;DHT22;8716;52.268;20.968;2024-01-15T06:11:16;2.60;99.90
17200;DHT22;8716;52.268;20.968;2024-01-15T06:13:45;2.60;99.90
17200;DHT22;8716;52.268;20.968;2024-01-15T06:16:16;2.60;99.90
17200;DHT22;8716;52.268;20.968;2024-01-15T06:18:46;2.60;99.90
17200;DHT22;8716;52.268;20.968;2024-01-15T06:21:14;2.60;99.90
17200;DHT22;8716;52.268;20.968;2024-01-15T06:23:44;2.60;99.90
17200;DHT22;8716;52.268;20.968;2024-01-15T06:26:12;2.60;99.90
17200;DHT22;8716;52.268;20.968;2024-01-15T06:28:41;2.60;99.90
17200;DHT22;8716;52.268;20.968;2024-01-15T06:31:09;2.60;99.90
17200;DHT22;8716;52.268;20.968;2024-01-15T06:33:37;2.60;99.90
17200;DHT22;8716;52.268;20.968;2024-01-15T06:36:06;2.60;99.90
17200;DHT22;8716;52.268;20.968;2024-01-15T06:38:35;2.60;99.90
17200;DHT22;8716;52.268;20.968;2024-01-15T06:41:05;2.50;99.90
17200;DHT22;8716;52.268;20.968;2024-01-15T06:43:33;2.50;99.90
17200;DHT22;8716;52.268;20.968;2024-01-15T06:46:01;2.50;99.90
17200;DHT22;8716;52.268;20.968;2024-01-15T06:48:34;2.50;99.90
17200;DHT22;8716;52.268;20.968;2024-01-15T06:51:03;2.50;99.90
17200;DHT22;8716;52.268;20.968;2024-01-15T06:53:32;2.60;99.90
17200;DHT22;8716;52.268;20.968;2024-01-15T06:56:00;2.60;99.90
17200;DHT22;8716;52.268;20.968;2024-01-15T06:58:31;2.60;99.90
17200;DHT22;8716;52.268;20.968;2024-01-15T07:00:59;2.60;99.90
17200;DHT22;8716;52.268;20.968;2024-01-15T07:03:28;2.60;99.90
17200;DHT22;8716;52.268;20.968;2024-01-15T07:05:56;2.50;99.90
17200;DHT22;8716;52.268;20.968;2024-01-15T07:08:25;2.60;99.90
17200;DHT22;8716;52.268;20.968;2024-01-15T07:10:53;2.60;99.90
17200;DHT22;8716;52.268;20.968;2024-01-15T07:13:21;2.60;99.90
17200;DHT22;8716;52.268;20.968;2024-01-15T07:15:51;2.70;99.90
17200;DHT22;8716;52.268;20.968;2024-01-15T07:18:19;2.60;99.90
17200;DHT22;8716;52.268;20.968;2024-01-15T07:20:48;2.50;99.90
17200;DHT22;8716;52.268;20.968;2024-01-15T07:23:16;2.50;99.90
17200;DHT22;8716;52.268;20.968;2024-01-15T07:25:47;2.50;99.90
17200;DHT22;8716;52.268;20.968;2024-01-15T07:28:16;2.50;99.90
17200;DHT22;8716;52.268;20.968;2024-01-15T07:30:44;2.50;99.90
17200;DHT22;8716;52.268;20.968;2024-01-15T07:33:14;2.40;99.90
17200;DHT22;8716;52.268;20.968;2024-01-15T07:35:42;2.40;99.90
17200;DHT22;8716;52.268;20.968;2024-01-15T07:38:11;2.40;99.90
17200;DHT22;8716;52.268;20.968;2024-01-15T07:40:39;2.40;99.90
17200;DHT22;8716;52.268;20.968;2024-01-15T07:43:07;2.30;99.90
17200;DHT22;8716;52.268;20.968;2024-01-15T07:45:36;2.30;99.90
17200;DHT22;8716;52.268;20.968;2024-01-15T07:48:05;2.30;99.90
17200;DHT22;8716;52.268;20.968;2024-01-15T07:50:35;2.30;99.90
17200;DHT22;8716;52.268;20.968;2024-01-15T07:53:03;2.40;99.90
17200;DHT22;8716;52.268;20.968;2024-01-15T07:55:32;2.40;99.90
17200;DHT22;8716;52.268;20.968;2024-01-15T07:58:00;2.40;99.90
17200;DHT22;8716;52.268;20.968;2024-01-15T08:00:42;2.40;99.90
17200;DHT22;8716;52.268;20.968;2024-01-15T08:03:11;2.50;99.90
17200;DHT22;8716;52.268;20.968;2024-01-15T08:05:40;2.50;99.90
17200;DHT22;8716;52.268;20.968;2024-01-15T08:08:09;2.50;99.90
17200;DHT22;8716;52.268;20.968;2024-01-15T08:10:37;2.40;99.90
17200;DHT22;8716;52.268;20.968;2024-01-15T08:13:05;2.40;99.90
17200;DHT22;8716;52.268;20.968;2024-01-15T08:15:36;2.50;99.90
17200;DHT22;8716;52.268;20.968;2024-01-15T08:18:05;2.40;99.90
17200;DHT22;8716;52.268;20.968;2024-01-15T08:20:33;2.40;99.90
17200;DHT22;8716;52.268;20.968;2024-01-15T08:23:03;2.40;99.90
17200;DHT22;8716;52.268;20.968;2024-01-15T08:25:33;2.30;99.90
17200;DHT22;8716;52.268;20.968;2024-01-15T08:28:02;2.30;99.90
17200;DHT22;8716;52.268;20.968;2024-01-15T08:30:30;2.30;99.90
17200;DHT22;8716;52.268;20.968;2024-01-15T08:32:59;2.50;99.90
17200;DHT22;8716;52.268;20.968;2024-01-15T08:35:37;2.60;99.90
17200;DHT22;8716;52.268;20.968;2024-01-15T08:38:07;2.80;99.90
17200;DHT22;8716;52.268;20.968;2024-01-15T08:40:35;3.00;99.90
17200;DHT22;8716;52.268;20.968;2024-01-15T08:43:03;3.00;99.90
17200;DHT22;8716;52.268;20.968;2024-01-15T08:45:33;3.20;99.90
17200;DHT22;8716;52.268;20.968;2024-01-15T08:48:02;3.40;99.90
17200;DHT22;8716;52.268;20.968;2024-01-15T08:50:31;3.50;99.90
17200;DHT22;8716;52.268;20.968;2024-01-15T08:53:00;3.50;99.90
17200;DHT22;8716;52.268;20.968;2024-01-15T08:55:29;3.50;99.90
17200;DHT22;8716;52.268;20.968;2024-01-15T08:57:58;3.40;99.90
17200;DHT22;8716;52.268;20.968;2024-01-15T09:00:25;3.30;99.90
17200;DHT22;8716;52.268;20.968;2024-01-15T09:02:56;3.30;99.90
17200;DHT22;8716;52.268;20.968;2024-01-15T09:05:24;3.30;99.90
17200;DHT22;8716;52.268;20.968;2024-01-15T09:07:53;3.30;99.90
17200;DHT22;8716;52.268;20.968;2024-01-15T09:10:21;3.30;99.90
17200;DHT22;8716;52.268;20.968;2024-01-15T09:12:50;3.30;99.90
17200;DHT22;8716;52.268;20.968;2024-01-15T09:15:19;3.30;99.90
17200;DHT22;8716;52.268;20.968;2024-01-15T09:17:47;3.30;99.90
17200;DHT22;8716;52.268;20.968;2024-01-15T09:20:16;3.30;99.90
17200;DHT22;8716;52.268;20.968;2024-01-15T09:22:45;3.40;99.90
17200;DHT22;8716;52.268;20.968;2024-01-15T09:25:13;4.00;99.90
17200;DHT22;8716;52.268;20.968;2024-01-15T09:27:42;4.60;99.90
17200;DHT22;8716;52.268;20.968;2024-01-15T09:30:12;5.30;99.90
17200;DHT22;8716;52.268;20.968;2024-01-15T09:32:41;5.70;99.90
17200;DHT22;8716;52.268;20.968;2024-01-15T09:35:10;5.80;99.90
17200;DHT22;8716;52.268;20.968;2024-01-15T09:37:39;5.60;99.90
17200;DHT22;8716;52.268;20.968;2024-01-15T09:40:14;5.40;99.90
17200;DHT22;8716;52.268;20.968;2024-01-15T09:42:44;5.30;99.90
17200;DHT22;8716;52.268;20.968;2024-01-15T09:45:15;5.40;99.90
17200;DHT22;8716;52.268;20.968;2024-01-15T09:47:44;5.40;99.90
17200;DHT22;8716;52.268;20.968;2024-01-15T09:50:13;5.70;99.90
17200;DHT22;8716;52.268;20.968;2024-01-15T09:52:43;5.90;99.90
17200;DHT22;8716;52.268;20.968;2024-01-15T09:55:13;5.90;99.90
17200;DHT22;8716;52.268;20.968;2024-01-15T09:57:44;5.90;99.90
17200;DHT22;8716;52.268;20.968;2024-01-15T10:00:17;5.90;99.90
17200;DHT22;8716;52.268;20.968;2024-01-15T10:02:46;5.70;99.90
17200;DHT22;8716;52.268;20.968;2024-01-15T10:05:14;5.50;99.90
17200;DHT22;8716;52.268;20.968;2024-01-15T10:07:43;5.40;99.90
17200;DHT22;8716;52.268;20.968;2024-01-15T10:10:13;5.30;99.90
17200;DHT22;8716;52.268;20.968;2024-01-15T10:12:42;5.30;99.90
17200;DHT22;8716;52.268;20.968;2024-01-15T10:15:11;5.30;99.90
17200;DHT22;8716;52.268;20.968;2024-01-15T10:17:41;5.20;99.90
17200;DHT22;8716;52.268;20.968;2024-01-15T10:20:11;5.10;99.90
17200;DHT22;8716;52.268;20.968;2024-01-15T10:22:41;5.00;99.90
17200;DHT22;8716;52.268;20.968;2024-01-15T10:25:10;5.00;99.90
17200;DHT22;8716;52.268;20.968;2024-01-15T10:27:40;4.90;99.90
17200;DHT22;8716;52.268;20.968;2024-01-15T10:30:10;4.90;99.90
17200;DHT22;8716;52.268;20.968;2024-01-15T10:32:57;4.80;99.90
17200;DHT22;8716;52.268;20.968;2024-01-15T10:35:27;4.70;99.90
17200;DHT22;8716;52.268;20.968;2024-01-15T10:37:56;4.60;99.90
17200;DHT22;8716;52.268;20.968;2024-01-15T10:40:24;4.50;99.90
17200;DHT22;8716;52.268;20.968;2024-01-15T10:42:52;4.30;99.90
17200;DHT22;8716;52.268;20.968;2024-01-15T10:45:21;4.30;99.90
17200;DHT22;8716;52.268;20.968;2024-01-15T10:47:51;4.30;99.90
17200;DHT22;8716;52.268;20.968;2024-01-15T10:50:21;4.30;99.90
17200;DHT22;8716;52.268;20.968;2024-01-15T10:52:49;4.40;99.90
17200;DHT22;8716;52.268;20.968;2024-01-15T10:55:18;4.60;99.90
17200;DHT22;8716;52.268;20.968;2024-01-15T10:57:48;4.60;99.90
17200;DHT22;8716;52.268;20.968;2024-01-15T11:00:17;4.70;99.90
17200;DHT22;8716;52.268;20.968;2024-01-15T11:02:46;4.70;99.90
17200;DHT22;8716;52.268;20.968;2024-01-15T11:05:16;4.80;99.90
17200;DHT22;8716;52.268;20.968;2024-01-15T11:07:45;4.80;99.90
17200;DHT22;8716;52.268;20.968;2024-01-15T11:13:19;4.60;99.90
17200;DHT22;8716;52.268;20.968;2024-01-15T11:15:58;4.60;99.90
17200;DHT22;8716;52.268;20.968;2024-01-15T11:18:29;4.60;99.90
17200;DHT22;8716;52.268;20.968;2024-01-15T11:21:21;4.50;99.90
17200;DHT22;8716;52.268;20.968;2024-01-15T11:23:52;4.30;99.90
17200;DHT22;8716;52.268;20.968;2024-01-15T11:26:31;4.20;99.90
17200;DHT22;8716;52.268;20.968;2024-01-15T11:29:01;4.20;99.90
17200;DHT22;8716;52.268;20.968;2024-01-15T11:32:01;4.30;99.90
17200;DHT22;8716;52.268;20.968;2024-01-15T11:34:59;4.20;99.90
17200;DHT22;8716;52.268;20.968;2024-01-15T11:37:57;4.20;99.90
17200;DHT22;8716;52.268;20.968;2024-01-15T11:40:37;4.10;99.90
17200;DHT22;8716;52.268;20.968;2024-01-15T11:43:06;4.10;99.90
17200;DHT22;8716;52.268;20.968;2024-01-15T11:45:37;4.00;99.90
17200;DHT22;8716;52.268;20.968;2024-01-15T11:48:12;4.00;99.90
17200;DHT22;8716;52.268;20.968;2024-01-15T11:50:42;3.90;99.90
17200;DHT22;8716;52.268;20.968;2024-01-15T11:53:17;3.90;99.90
17200;DHT22;8716;52.268;20.968;2024-01-15T11:55:46;3.80;99.90
17200;DHT22;8716;52.268;20.968;2024-01-15T11:58:16;3.70;99.90
17200;DHT22;8716;52.268;20.968;2024-01-15T12:00:47;3.80;99.90
17200;DHT22;8716;52.268;20.968;2024-01-15T12:03:17;3.80;99.90
17200;DHT22;8716;52.268;20.968;2024-01-15T12:05:45;3.80;99.90
17200;DHT22;8716;52.268;20.968;2024-01-15T12:08:15;3.70;99.90
17200;DHT22;8716;52.268;20.968;2024-01-15T12:10:48;3.80;99.90
17200;DHT22;8716;52.268;20.968;2024-01-15T12:13:17;3.80;99.90
17200;DHT22;8716;52.268;20.968;2024-01-15T12:15:47;3.80;99.90
17200;DHT22;8716;52.268;20.968;2024-01-15T12:18:17;3.80;99.90
17200;DHT22;8716;52.268;20.968;2024-01-15T12:20:46;3.70;99.90
17200;DHT22;8716;52.268;20.968;2024-01-15T12:23:17;3.50;99.90
17200;DHT22;8716;52.268;20.968;2024-01-15T12:25:45;3.40;99.90
17200;DHT22;8716;52.268;20.968;2024-01-15T12:28:15;3.30;99.90
17200;DHT22;8716;52.268;20.968;2024-01-15T12:30:47;3.50;99.90
17200;DHT22;8716;52.268;20.968;2024-01-15T12:33:18;3.50;99.90
17200;DHT22;8716;52.268;20.968;2024-01-15T12:35:48;3.50;99.90
17200;DHT22;8716;52.268;20.968;2024-01-15T12:38:20;3.40;99.90
17200;DHT22;8716;52.268;20.968;2024-01-15T12:40:48;3.30;99.90
17200;DHT22;8716;52.268;20.968;2024-01-15T12:43:17;3.20;99.90
17200;DHT22;8716;52.268;20.968;2024-01-15T12:45:46;3.00;99.90
17200;DHT22;8716;52.268;20.968;2024-01-15T12:48:14;2.90;99.90
17200;DHT22;8716;52.268;20.968;2024-01-15T12:50:45;2.70;99.90
17200;DHT22;8716;52.268;20.968;2024-01-15T12:53:14;2.70;99.90
17200;DHT22;8716;52.268;20.968;2024-01-15T12:55:45;2.60;99.90
17200;DHT22;8716;52.268;20.968;2024-01-15T12:58:14;2.70;99.90
17200;DHT22;8716;52.268;20.968;2024-01-15T13:00:46;2.70;99.90
17200;DHT22;8716;52.268;20.968;2024-01-15T13:03:14;2.80;99.90
17200;DHT22;8716;52.268;20.968;2024-01-15T13:05:43;2.80;99.90
17200;DHT22;8716;52.268;20.968;2024-01-15T13:08:12;2.80;99.90
17200;DHT22;8716;52.268;20.968;2024-01-15T13:10:40;2.80;99.90
17200;DHT22;8716;52.268;20.968;2024-01-15T13:13:10;2.70;99.90
17200;DHT22;8716;52.268;20.968;2024-01-15T13:15:39;2.80;99.90
17200;DHT22;8716;52.268;20.968;2024-01-15T13:18:08;2.70;99.90
17200;DHT22;8716;52.268;20.968;2024-01-15T13:20:36;2.70;99.90
17200;DHT22;8716;52.268;20.968;2024-01-15T13:23:05;2.60;99.90
17200;DHT22;8716;52.268;20.968;2024-01-15T13:25:34;2.50;99.90
17200;DHT22;8716;52.268;20.968;2024-01-15T13:28:06;2.50;99.90
17200;DHT22;8716;52.268;20.968;2024-01-15T13:30:36;2.50;99.90
17200;DHT22;8716;52.268;20.968;2024-01-15T13:33:06;2.50;99.90
17200;DHT22;8716;52.268;20.968;2024-01-15T13:35:35;2.40;99.90
17200;DHT22;8716;52.268;20.968;2024-01-15T13:38:04;2.40;99.90
17200;DHT22;8716;52.268;20.968;2024-01-15T13:40:32;2.40;99.90
17200;DHT22;8716;52.268;20.968;2024-01-15T13:43:01;2.50;99.90
17200;DHT22;8716;52.268;20.968;2024-01-15T13:45:34;2.50;99.90
17200;DHT22;8716;52.268;20.968;2024-01-15T13:48:06;2.50;99.90
17200;DHT22;8716;52.268;20.968;2024-01-15T13:50:35;2.50;99.90
17200;DHT22;8716;52.268;20.968;2024-01-15T13:53:04;2.50;99.90
17200;DHT22;8716;52.268;20.968;2024-01-15T13:55:32;2.50;99.90
17200;DHT22;8716;52.268;20.968;2024-01-15T13:58:01;2.60;99.90
17200;DHT22;8716;52.268;20.968;2024-01-15T14:00:32;2.60;99.90
17200;DHT22;8716;52.268;20.968;2024-01-15T14:03:01;2.60;99.90
17200;DHT22;8716;52.268;20.968;2024-01-15T14:05:31;2.60;99.90
17200;DHT22;8716;52.268;20.968;2024-01-15T14:07:59;2.60;99.90
17200;DHT22;8716;52.268;20.968;2024-01-15T14:10:27;2.60;99.90
17200;DHT22;8716;52.268;20.968;2024-01-15T14:12:55;2.60;99.90
17200;DHT22;8716;52.268;20.968;2024-01-15T14:15:24;2.70;99.90
17200;DHT22;8716;52.268;20.968;2024-01-15T14:17:52;2.70;99.90
17200;DHT22;8716;52.268;20.968;2024-01-15T14:20:20;2.70;99.90
17200;DHT22;8716;52.268;20.968;2024-01-15T14:22:50;2.70;99.90
17200;DHT22;8716;52.268;20.968;2024-01-15T14:25:18;2.70;99.90
17200;DHT22;8716;52.268;20.968;2024-01-15T14:27:46;2.70;99.90
17200;DHT22;8716;52.268;20.968;2024-01-15T14:30:15;2.80;99.90
17200;DHT22;8716;52.268;20.968;2024-01-15T14:32:44;2.70;99.90
17200;DHT22;8716;52.268;20.968;2024-01-15T14:35:12;2.70;99.90
17200;DHT22;8716;52.268;20.968;2024-01-15T14:37:40;2.70;99.90
17200;DHT22;8716;52.268;20.968;2024-01-15T14:40:10;2.60;99.90
17200;DHT22;8716;52.268;20.968;2024-01-15T14:42:41;2.50;99.90
17200;DHT22;8716;52.268;20.968;2024-01-15T14:45:10;2.50;99.90
17200;DHT22;8716;52.268;20.968;2024-01-15T14:47:40;2.50;99.90
17200;DHT22;8716;52.268;20.968;2024-01-15T14:50:09;2.50;99.90
17200;DHT22;8716;52.268;20.968;2024-01-15T14:52:39;2.50;99.90
17200;DHT22;8716;52.268;20.968;2024-01-15T14:55:10;2.50;99.90
17200;DHT22;8716;52.268;20.968;2024-01-15T14:57:38;2.50;99.90
17200;DHT22;8716;52.268;20.968;2024-01-15T15:00:07;2.50;99.90
17200;DHT22;8716;52.268;20.968;2024-01-15T15:02:36;2.40;99.90
17200;DHT22;8716;52.268;20.968;2024-01-15T15:05:08;2.40;99.90
17200;DHT22;8716;52.268;20.968;2024-01-15T15:07:37;2.40;99.90
17200;DHT22;8716;52.268;20.968;2024-01-15T15:10:07;2.40;99.90
17200;DHT22;8716;52.268;20.968;2024-01-15T15:12:37;2.40;99.90
17200;DHT22;8716;52.268;20.968;2024-01-15T15:15:06;2.30;99.90
17200;DHT22;8716;52.268;20.968;2024-01-15T15:17:43;2.40;99.90
17200;DHT22;8716;52.268;20.968;2024-01-15T15:20:11;2.40;99.90
17200;DHT22;8716;52.268;20.968;2024-01-15T15:22:42;2.50;99.90
17200;DHT22;8716;52.268;20.968;2024-01-15T15:25:11;2.50;99.90
17200;DHT22;8716;52.268;20.968;2024-01-15T15:27:43;2.50;99.90
17200;DHT22;8716;52.268;20.968;2024-01-15T15:30:12;2.50;99.90
17200;DHT22;8716;52.268;20.968;2024-01-15T15:32:40;2.50;99.90
17200;DHT22;8716;52.268;20.968;2024-01-15T15:35:08;2.40;99.90
17200;DHT22;8716;52.268;20.968;2024-01-15T15:37:38;2.40;99.90
17200;DHT22;8716;52.268;20.968;2024-01-15T15:40:07;2.30;99.90
17200;DHT22;8716;52.268;20.968;2024-01-15T15:42:37;2.40;99.90
17200;DHT22;8716;52.268;20.968;2024-01-15T15:45:08;2.40;99.90
17200;DHT22;8716;52.268;20.968;2024-01-15T15:47:37;2.50;99.90
17200;DHT22;8716;52.268;20.968;2024-01-15T15:50:07;2.50;99.90
17200;DHT22;8716;52.268;20.968;2024-01-15T15:52:36;2.50;99.90
17200;DHT22;8716;52.268;20.968;2024-01-15T15:55:04;2.50;99.90
17200;DHT22;8716;52.268;20.968;2024-01-15T15:57:35;2.50;99.90
17200;DHT22;8716;52.268;20.968;2024-01-15T16:00:05;2.40;99.90
17200;DHT22;8716;52.268;20.968;2024-01-15T16:02:39;2.40;99.90